KAKH/AKH METAR and TAF weather

Enter ICAO airport designator
Station Type Date Time Source
KAKH METAR 2019/02/20 07:54 UTC NOAA

KAKH 200754Z AUTO 06009KT 6SM -RA BR OVC006 03/01 A3039 RMK AO2 CIG 005V009 SLP296 P0002 T00330011


Station Type Date Time Source
KAKH Decoded METAR 2019/02/20 07:54 UTC NOAA

GASTONIA MUNICIPAL AIRPORT, NC, United States (KAKH) 35-12N 81-09W 243M
Feb 20, 2019 - 02:54 AM EST / 2019.02.20 0754 UTC
Wind: from the ENE (060 degrees) at 10 MPH (9 KT):0
Visibility: 6 mile(s):0
Sky conditions: overcast
Weather: light rain; mist
Precipitation last hour: 0.02 inches
Temperature: 37.9 F (3.3 C)
Dew Point: 34.0 F (1.1 C)
Relative Humidity: 85%
Pressure (altimeter): 30.39 in. Hg (1029 hPa)
ob: KAKH 200754Z AUTO 06009KT 6SM -RA BR OVC006 03/01 A3039 RMK AO2 CIG 005V009 SLP296 P0002 T00330011
cycle: 8

Station Type Date Time Source
KAKH TAF UTC NOAA

Error!


Example: see airport list